Terminal Aerodrome Forecast
Issued by NWS

Home | Current Version | Previous Version | Text Only | Print | Product List | Glossary On
Versions: 1 2 3 4 5 6 7 8 9 10 11 12 13 14 15 16
000
FTUS45 KGJT 301741 CCA
TAFDRO
TAF COR
KDRO 301741Z 3018/0118 24006KT P6SM BKN200
     FM301900 25008KT P6SM VCSH BKN200
     FM010100 26005KT P6SM -SHRA BKN090
     FM010400 26005KT P6SM VCSH BKN120
     FM010600 06007G15KT P6SM VCSH OVC090
     FM010900 06007KT P6SM -SHRA OVC030=

USA.gov is the U.S. government's official web portal to all federal, state and local government web resources and services.